createdAt,value
2023-11-19T00:01:06.988Z,2.22
2023-11-19T00:03:34.558Z,2.45
2023-11-19T00:06:01.443Z,2.40
2023-11-19T00:08:28.154Z,2.58
2023-11-19T00:10:54.832Z,2.42
2023-11-19T00:13:21.463Z,2.47
2023-11-19T00:15:48.608Z,2.47
2023-11-19T00:18:15.435Z,2.30
2023-11-19T00:20:42.560Z,2.38
2023-11-19T00:23:09.236Z,2.22
2023-11-19T00:25:35.865Z,3.38
2023-11-19T00:28:02.529Z,3.42
2023-11-19T00:30:29.303Z,3.20
2023-11-19T00:32:55.897Z,4.35
2023-11-19T00:35:22.513Z,2.97
2023-11-19T00:37:49.924Z,3.05
2023-11-19T00:40:18.590Z,2.95
2023-11-19T00:42:45.605Z,3.50
2023-11-19T00:45:13.830Z,3.22
2023-11-19T00:47:40.535Z,2.83
2023-11-19T00:50:10.638Z,3.00
2023-11-19T00:52:38.242Z,3.40
2023-11-19T00:55:05.846Z,2.92
2023-11-19T00:57:33.556Z,2.15
2023-11-19T01:00:01.327Z,2.58
2023-11-19T01:02:28.086Z,2.35
2023-11-19T01:04:54.801Z,1.98
2023-11-19T01:07:23.130Z,1.90
2023-11-19T01:09:49.762Z,1.70
2023-11-19T01:12:16.327Z,2.30
2023-11-19T01:14:42.958Z,2.25
2023-11-19T01:17:10.188Z,1.75
2023-11-19T01:19:36.920Z,2.00
2023-11-19T01:22:03.611Z,2.08
2023-11-19T01:24:32.099Z,1.67
2023-11-19T01:27:00.989Z,1.83
2023-11-19T01:29:27.759Z,1.95
2023-11-19T01:31:54.334Z,2.00
2023-11-19T01:34:20.954Z,2.20
2023-11-19T01:36:49.662Z,1.70
2023-11-19T01:39:20.930Z,1.60
2023-11-19T01:41:47.561Z,1.63
2023-11-19T01:44:14.331Z,2.10
2023-11-19T01:46:46.464Z,2.00
2023-11-19T01:49:15.369Z,2.33
2023-11-19T01:51:42.928Z,1.95
2023-11-19T01:54:09.937Z,1.95
2023-11-19T01:56:38.488Z,2.28
2023-11-19T01:59:05.352Z,1.80
2023-11-19T02:01:33.704Z,2.10
2023-11-19T02:04:00.918Z,1.90
2023-11-19T02:06:29.409Z,2.10
2023-11-19T02:08:56.028Z,2.00
2023-11-19T02:11:22.727Z,2.08
2023-11-19T02:13:49.360Z,2.30
2023-11-19T02:16:16.034Z,1.77
2023-11-19T02:18:42.720Z,1.80
2023-11-19T02:21:11.616Z,1.50
2023-11-19T02:23:38.515Z,2.10
2023-11-19T02:26:23.729Z,1.75
2023-11-19T02:28:51.082Z,1.70
2023-11-19T02:31:17.948Z,1.77
2023-11-19T02:33:44.587Z,2.17
2023-11-19T02:36:11.595Z,1.80
2023-11-19T02:38:38.325Z,2.22
2023-11-19T02:41:06.695Z,2.42
2023-11-19T02:43:34.718Z,2.08
2023-11-19T02:46:02.794Z,2.38
2023-11-19T02:48:29.437Z,2.58
2023-11-19T02:50:56.078Z,3.20
2023-11-19T02:53:23.319Z,2.78
2023-11-19T02:55:51.130Z,3.38
2023-11-19T02:58:21.391Z,3.05
2023-11-19T03:01:03.472Z,2.58
2023-11-19T03:03:32.383Z,2.85
2023-11-19T03:05:59.148Z,3.55
2023-11-19T03:08:25.783Z,2.90
2023-11-19T03:10:52.379Z,3.03
2023-11-19T03:13:19.318Z,2.38
2023-11-19T03:15:46.924Z,2.55
2023-11-19T03:18:13.569Z,3.03
2023-11-19T03:20:40.219Z,3.00
2023-11-19T03:23:07.556Z,2.50
2023-11-19T03:25:35.137Z,3.38
2023-11-19T03:28:03.332Z,2.92
2023-11-19T03:33:03.987Z,2.30
2023-11-19T03:35:31.490Z,2.58
2023-11-19T03:37:58.172Z,2.53
2023-11-19T03:40:26.122Z,2.78
2023-11-19T03:42:52.807Z,2.55
2023-11-19T03:45:19.371Z,2.20
2023-11-19T03:47:45.964Z,2.50
2023-11-19T03:50:12.606Z,2.33
2023-11-19T03:55:09.779Z,2.55
2023-11-19T03:57:36.834Z,2.00
2023-11-19T04:00:15.041Z,2.17
2023-11-19T04:02:42.368Z,2.10
2023-11-19T04:05:09.200Z,2.15
2023-11-19T04:07:35.772Z,2.10
2023-11-19T04:10:03.063Z,1.60
2023-11-19T04:12:29.893Z,1.73
2023-11-19T04:17:26.872Z,1.65
2023-11-19T04:19:53.420Z,1.63
2023-11-19T04:22:20.066Z,1.60
2023-11-19T04:24:46.860Z,1.90
2023-11-19T04:27:14.622Z,1.50
2023-11-19T04:29:41.196Z,1.50
2023-11-19T04:32:08.729Z,1.80
2023-11-19T04:34:35.521Z,1.95
2023-11-19T04:37:13.207Z,1.90
2023-11-19T04:39:40.444Z,1.77
2023-11-19T04:42:07.738Z,1.98
2023-11-19T04:44:34.547Z,2.50
2023-11-19T04:47:01.525Z,1.83
2023-11-19T04:49:28.634Z,1.77
2023-11-19T04:51:55.696Z,1.65
2023-11-19T04:54:22.513Z,1.58
2023-11-19T04:56:49.789Z,1.75
2023-11-19T04:59:16.428Z,1.48
2023-11-19T05:01:47.189Z,2.25
2023-11-19T05:04:13.900Z,1.70
2023-11-19T05:06:40.552Z,2.08
2023-11-19T05:09:10.226Z,2.08
2023-11-19T05:11:36.905Z,1.90
2023-11-19T05:14:07.317Z,1.90
2023-11-19T05:16:34.229Z,1.77
2023-11-19T05:19:01.007Z,1.85
2023-11-19T05:21:27.932Z,1.80
2023-11-19T05:23:55.357Z,2.00
2023-11-19T05:26:23.221Z,1.88
2023-11-19T05:28:49.847Z,1.70
2023-11-19T05:31:18.119Z,1.35
2023-11-19T05:33:45.068Z,1.77
2023-11-19T05:36:13.742Z,1.65
2023-11-19T05:38:40.583Z,1.40
2023-11-19T05:41:07.492Z,1.70
2023-11-19T05:43:34.584Z,1.77
2023-11-19T05:46:02.601Z,2.08
2023-11-19T05:48:29.864Z,2.00
2023-11-19T05:50:57.001Z,2.15
2023-11-19T05:53:23.585Z,1.80
2023-11-19T05:55:55.905Z,1.80
2023-11-19T05:58:27.326Z,1.90
2023-11-19T06:00:54.175Z,1.50
2023-11-19T06:03:22.523Z,1.50
2023-11-19T06:05:50.523Z,1.88
2023-11-19T06:08:17.620Z,1.70
2023-11-19T06:10:47.070Z,1.42
2023-11-19T06:13:15.938Z,1.60
2023-11-19T06:15:43.659Z,1.77
2023-11-19T06:18:11.136Z,1.40
2023-11-19T06:23:07.814Z,1.52
2023-11-19T06:25:36.311Z,1.40
2023-11-19T06:28:02.997Z,1.30
2023-11-19T06:30:30.933Z,1.40
2023-11-19T06:32:57.651Z,1.65
2023-11-19T06:35:24.244Z,1.25
2023-11-19T06:37:50.844Z,1.30
2023-11-19T06:40:17.560Z,1.25
2023-11-19T06:42:44.180Z,1.58
2023-11-19T06:45:10.915Z,1.95
2023-11-19T06:47:37.610Z,1.15
2023-11-19T06:50:06.665Z,1.30
2023-11-19T06:52:33.492Z,1.30
2023-11-19T06:57:30.650Z,1.70
2023-11-19T06:59:58.186Z,1.52
2023-11-19T07:02:27.784Z,1.40
2023-11-19T07:04:55.628Z,1.30
2023-11-19T07:07:22.270Z,1.10
2023-11-19T07:09:49.177Z,1.52
2023-11-19T07:12:16.450Z,1.15
2023-11-19T07:14:43.293Z,1.08
2023-11-19T07:17:11.208Z,1.38
2023-11-19T07:19:39.038Z,1.30
2023-11-19T07:22:07.052Z,0.90
2023-11-19T07:24:33.772Z,1.30
2023-11-19T07:27:00.397Z,1.10
2023-11-19T07:29:30.252Z,1.40
2023-11-19T07:31:57.958Z,1.17
2023-11-19T07:34:25.703Z,1.40
2023-11-19T07:36:52.957Z,0.93
2023-11-19T07:39:19.752Z,0.95
2023-11-19T07:41:46.338Z,0.85
2023-11-19T07:44:12.952Z,1.10
2023-11-19T07:46:39.681Z,1.10
2023-11-19T07:49:06.374Z,1.15
2023-11-19T07:51:33.020Z,1.05
2023-11-19T07:53:59.631Z,1.35
2023-11-19T07:56:26.396Z,1.00
2023-11-19T07:58:53.852Z,1.52
2023-11-19T08:01:20.517Z,1.10
2023-11-19T08:06:16.811Z,1.00
2023-11-19T08:08:43.920Z,1.10
2023-11-19T08:11:10.513Z,1.30
2023-11-19T08:13:37.334Z,0.98
2023-11-19T08:16:04.104Z,1.13
2023-11-19T08:18:30.732Z,0.90
2023-11-19T08:20:59.179Z,1.20
2023-11-19T08:23:26.689Z,1.55
2023-11-19T08:25:53.863Z,1.08
2023-11-19T08:28:20.500Z,1.40
2023-11-19T08:30:47.271Z,1.10
2023-11-19T08:33:13.941Z,1.17
2023-11-19T08:35:40.771Z,1.20
2023-11-19T08:38:07.955Z,1.23
2023-11-19T08:40:34.660Z,1.20
2023-11-19T08:43:01.787Z,0.90
2023-11-19T08:45:28.438Z,0.82
2023-11-19T08:47:55.106Z,1.10
2023-11-19T08:50:21.829Z,1.00
2023-11-19T08:52:48.507Z,1.08
2023-11-19T08:55:15.065Z,1.42
2023-11-19T08:57:41.683Z,1.75
2023-11-19T09:00:09.160Z,1.70
2023-11-19T09:02:38.345Z,1.42
2023-11-19T09:05:06.472Z,1.33
2023-11-19T09:07:33.217Z,1.30
2023-11-19T09:10:00.073Z,1.63
2023-11-19T09:12:26.669Z,1.30
2023-11-19T09:14:53.312Z,1.23
2023-11-19T09:17:20.057Z,1.40
2023-11-19T09:19:46.768Z,1.15
2023-11-19T09:22:13.467Z,1.30
2023-11-19T09:24:40.138Z,1.13
2023-11-19T09:27:06.844Z,1.30
2023-11-19T09:29:33.962Z,1.30
2023-11-19T09:32:00.862Z,1.30
2023-11-19T09:34:27.455Z,2.05
2023-11-19T09:36:54.088Z,1.52
2023-11-19T09:39:21.775Z,1.35
2023-11-19T09:41:48.597Z,1.58
2023-11-19T09:44:19.068Z,1.10
2023-11-19T09:46:47.268Z,1.25
2023-11-19T09:49:15.436Z,1.50
2023-11-19T09:51:42.793Z,1.70
2023-11-19T09:54:10.425Z,1.77
2023-11-19T09:56:38.835Z,1.70
2023-11-19T09:59:06.477Z,1.40
2023-11-19T10:01:33.687Z,1.80
2023-11-19T10:04:01.713Z,1.60
2023-11-19T10:06:28.717Z,1.90
2023-11-19T10:08:56.406Z,2.13
2023-11-19T10:11:23.039Z,1.75
2023-11-19T10:13:50.109Z,1.63
2023-11-19T10:16:18.469Z,1.80
2023-11-19T10:18:51.103Z,1.48
2023-11-19T10:21:20.992Z,1.45
2023-11-19T10:23:52.909Z,1.77
2023-11-19T10:26:20.968Z,1.90
2023-11-19T10:28:51.236Z,2.22
2023-11-19T10:31:19.425Z,1.65
2023-11-19T10:33:46.905Z,1.70
2023-11-19T10:36:13.951Z,2.17
2023-11-19T10:38:41.814Z,2.15
2023-11-19T10:41:08.736Z,1.90
2023-11-19T10:43:48.390Z,1.70
2023-11-19T10:46:15.844Z,1.70
2023-11-19T10:48:42.568Z,1.33
2023-11-19T10:51:09.455Z,1.67
2023-11-19T10:53:39.562Z,2.03
2023-11-19T10:56:11.771Z,1.70
2023-11-19T10:58:42.444Z,1.55
2023-11-19T11:01:17.289Z,2.08
2023-11-19T11:03:46.961Z,1.58
2023-11-19T11:06:14.687Z,1.50
2023-11-19T11:08:41.752Z,2.35
2023-11-19T11:11:09.342Z,1.55
2023-11-19T11:13:37.906Z,1.60
2023-11-19T11:16:07.784Z,1.50
2023-11-19T11:18:34.462Z,1.60
2023-11-19T11:21:06.631Z,1.50
2023-11-19T11:24:08.366Z,1.38
2023-11-19T11:26:59.514Z,1.70
2023-11-19T11:32:38.015Z,1.50
2023-11-19T11:35:29.566Z,1.23
2023-11-19T11:38:09.363Z,1.40
2023-11-19T11:40:37.098Z,1.50
2023-11-19T11:43:06.163Z,1.38
2023-11-19T11:45:42.193Z,1.30
2023-11-19T11:48:16.863Z,1.45
2023-11-19T11:50:58.528Z,1.63
2023-11-19T11:53:26.331Z,2.22
2023-11-19T11:56:00.095Z,1.70
2023-11-19T11:58:31.889Z,2.10
2023-11-19T12:01:00.245Z,3.05
2023-11-19T12:03:30.109Z,2.33
2023-11-19T12:05:56.991Z,7.30
2023-11-19T12:08:28.172Z,2.40
2023-11-19T12:10:59.385Z,1.75
2023-11-19T12:13:44.350Z,1.30
2023-11-19T12:16:11.984Z,1.63
2023-11-19T12:18:40.801Z,1.40
2023-11-19T12:21:10.587Z,1.42
2023-11-19T12:23:45.913Z,1.30
2023-11-19T12:26:32.257Z,1.35
2023-11-19T12:29:00.381Z,1.88
2023-11-19T12:31:27.147Z,1.30
2023-11-19T12:33:54.542Z,1.40
2023-11-19T12:36:21.607Z,1.27
2023-11-19T12:38:48.336Z,1.30
2023-11-19T12:41:18.813Z,1.80
2023-11-19T12:46:18.586Z,1.73
2023-11-19T12:48:45.287Z,1.63
2023-11-19T12:51:14.593Z,1.60
2023-11-19T12:53:59.400Z,2.05
2023-11-19T12:56:26.096Z,1.80
2023-11-19T12:58:52.716Z,1.90
2023-11-19T13:01:21.907Z,1.75
2023-11-19T13:03:52.492Z,1.42
2023-11-19T13:06:22.042Z,1.52
2023-11-19T13:08:52.815Z,2.00
2023-11-19T13:11:33.420Z,1.60
2023-11-19T13:14:01.752Z,1.58
2023-11-19T13:16:29.380Z,1.90
2023-11-19T13:18:56.420Z,1.55
2023-11-19T13:21:23.095Z,1.30
2023-11-19T13:23:49.805Z,1.85
2023-11-19T13:26:16.594Z,1.35
2023-11-19T13:28:43.210Z,1.73
2023-11-19T13:31:11.465Z,1.90
2023-11-19T13:33:38.391Z,1.33
2023-11-19T13:36:09.149Z,1.40
2023-11-19T13:38:36.738Z,1.35
2023-11-19T13:41:06.370Z,1.60
2023-11-19T13:43:33.246Z,1.50
2023-11-19T13:46:00.059Z,1.70
2023-11-19T13:48:28.427Z,1.52
2023-11-19T13:50:55.309Z,1.50
2023-11-19T13:53:22.579Z,1.60
2023-11-19T13:55:49.181Z,1.40
2023-11-19T13:58:15.781Z,1.25
2023-11-19T14:00:44.273Z,1.00
2023-11-19T14:03:12.207Z,1.00
2023-11-19T14:05:39.480Z,1.65
2023-11-19T14:08:19.824Z,1.50
2023-11-19T14:10:52.521Z,1.40
2023-11-19T14:13:19.287Z,1.80
2023-11-19T14:15:48.461Z,1.75
2023-11-19T14:18:16.694Z,1.05
2023-11-19T14:20:43.740Z,1.00
2023-11-19T14:23:10.448Z,1.42
2023-11-19T14:25:37.194Z,1.20
2023-11-19T14:28:05.846Z,1.80
2023-11-19T14:30:33.378Z,1.45
2023-11-19T14:33:00.306Z,1.23
2023-11-19T14:35:27.041Z,1.33
2023-11-19T14:37:54.052Z,1.17
2023-11-19T14:40:20.779Z,1.13
2023-11-19T14:42:47.506Z,1.25
2023-11-19T14:45:14.601Z,1.10
2023-11-19T14:47:41.331Z,1.20
2023-11-19T14:50:09.836Z,1.17
2023-11-19T14:52:37.964Z,1.00
2023-11-19T14:55:05.021Z,0.95
2023-11-19T14:57:31.838Z,1.00
2023-11-19T14:59:58.627Z,1.08
2023-11-19T15:02:25.446Z,1.15
2023-11-19T15:04:52.383Z,1.00
2023-11-19T15:07:19.235Z,1.23
2023-11-19T15:09:46.634Z,2.03
2023-11-19T15:12:13.256Z,1.38
2023-11-19T15:14:39.845Z,1.42
2023-11-19T15:17:08.004Z,1.77
2023-11-19T15:19:35.339Z,1.10
2023-11-19T15:22:05.417Z,1.38
2023-11-19T15:24:32.234Z,2.17
2023-11-19T15:29:29.541Z,1.75
2023-11-19T15:31:56.171Z,1.73
2023-11-19T15:34:22.938Z,1.70
2023-11-19T15:36:49.698Z,1.45
2023-11-19T15:39:16.309Z,1.85
2023-11-19T15:41:43.044Z,1.92
2023-11-19T15:44:09.736Z,1.70
2023-11-19T15:46:36.344Z,1.70
2023-11-19T15:49:03.746Z,1.17
2023-11-19T15:51:30.448Z,1.88
2023-11-19T15:53:57.029Z,1.80
2023-11-19T15:56:23.629Z,2.03
2023-11-19T15:58:50.241Z,1.42
2023-11-19T16:01:18.954Z,1.67
2023-11-19T16:06:15.275Z,1.50
2023-11-19T16:08:41.950Z,1.30
2023-11-19T16:11:10.732Z,1.77
2023-11-19T16:13:37.430Z,1.10
2023-11-19T16:16:05.181Z,1.10
2023-11-19T16:18:31.800Z,1.08
2023-11-19T16:20:58.483Z,1.30
2023-11-19T16:23:25.071Z,1.40
2023-11-19T16:25:51.663Z,1.83
2023-11-19T16:28:18.358Z,1.80
2023-11-19T16:30:45.289Z,1.50
2023-11-19T16:33:17.312Z,1.77
2023-11-19T16:35:51.613Z,1.80
2023-11-19T16:38:18.272Z,1.65
2023-11-19T16:40:45.072Z,1.30
2023-11-19T16:43:11.883Z,1.30
2023-11-19T16:45:38.574Z,1.20
2023-11-19T16:48:05.826Z,1.20
2023-11-19T16:50:33.685Z,0.98
2023-11-19T16:53:02.359Z,1.40
2023-11-19T16:55:30.722Z,1.17
2023-11-19T16:57:57.364Z,1.17
2023-11-19T17:00:23.921Z,1.40
2023-11-19T17:02:52.249Z,1.38
2023-11-19T17:05:19.125Z,1.20
2023-11-19T17:07:46.284Z,1.42
2023-11-19T17:10:13.576Z,1.70
2023-11-19T17:12:40.273Z,1.60
2023-11-19T17:15:07.487Z,1.30
2023-11-19T17:17:36.260Z,1.10
2023-11-19T17:20:07.566Z,0.90
2023-11-19T17:22:39.366Z,1.25
2023-11-19T17:25:07.328Z,1.10
2023-11-19T17:27:34.669Z,0.90
2023-11-19T17:30:02.100Z,0.80
2023-11-19T17:32:29.116Z,0.90
2023-11-19T17:34:55.844Z,0.70
2023-11-19T17:37:22.586Z,0.70
2023-11-19T17:39:49.730Z,0.90
2023-11-19T17:42:16.369Z,1.10
2023-11-19T17:44:43.094Z,0.73
2023-11-19T17:47:09.801Z,1.30
2023-11-19T17:49:36.604Z,1.58
2023-11-19T17:52:04.215Z,1.83
2023-11-19T17:54:31.218Z,1.33
2023-11-19T17:56:58.176Z,1.70
2023-11-19T17:59:25.919Z,1.55
2023-11-19T18:01:57.886Z,1.70
2023-11-19T18:04:26.614Z,1.70
2023-11-19T18:06:53.697Z,1.70
2023-11-19T18:09:20.803Z,2.15
2023-11-19T18:11:48.457Z,1.70
2023-11-19T18:14:15.080Z,1.80
2023-11-19T18:16:41.697Z,2.22
2023-11-19T18:19:08.361Z,2.03
2023-11-19T18:21:35.019Z,2.33
2023-11-19T18:24:01.863Z,1.73
2023-11-19T18:28:58.179Z,2.22
2023-11-19T18:31:25.733Z,2.15
2023-11-19T18:33:52.533Z,1.98
2023-11-19T18:36:19.257Z,1.63
2023-11-19T18:38:46.119Z,1.70
2023-11-19T18:41:14.300Z,1.45
2023-11-19T18:43:41.510Z,2.03
2023-11-19T18:46:09.483Z,1.60
2023-11-19T18:48:37.008Z,1.42
2023-11-19T18:51:04.362Z,1.58
2023-11-19T18:53:31.514Z,1.20
2023-11-19T18:55:58.348Z,2.08
2023-11-19T18:58:25.408Z,2.00
2023-11-19T19:00:52.014Z,1.60
2023-11-19T19:03:23.029Z,2.17
2023-11-19T19:05:50.032Z,2.80
2023-11-19T19:08:17.906Z,1.77
2023-11-19T19:10:44.981Z,2.63
2023-11-19T19:13:11.815Z,1.95
2023-11-19T19:15:38.465Z,1.80
2023-11-19T19:18:06.253Z,1.85
2023-11-19T19:20:33.192Z,2.00
2023-11-19T19:22:59.921Z,1.77
2023-11-19T19:25:28.886Z,1.70
2023-11-19T19:28:22.302Z,1.77
2023-11-19T19:30:44.563Z,2.42
2023-11-19T19:33:12.416Z,2.00
2023-11-19T19:35:39.237Z,2.05
2023-11-19T19:38:06.011Z,2.22
2023-11-19T19:40:32.806Z,2.45
2023-11-19T19:42:59.576Z,1.90
2023-11-19T19:45:26.367Z,1.80
2023-11-19T19:47:54.074Z,2.28
2023-11-19T19:50:21.020Z,2.00
2023-11-19T19:52:47.718Z,1.77
2023-11-19T19:55:14.690Z,1.67
2023-11-19T19:57:41.329Z,1.80
2023-11-19T20:00:13.548Z,1.90
2023-11-19T20:02:42.430Z,1.80
2023-11-19T20:05:12.857Z,1.95
2023-11-19T20:07:43.886Z,1.75
2023-11-19T20:12:41.992Z,2.17
2023-11-19T20:15:09.749Z,2.15
2023-11-19T20:17:36.726Z,2.08
2023-11-19T20:20:04.500Z,2.20
2023-11-19T20:22:32.093Z,1.90
2023-11-19T20:24:58.839Z,2.72
2023-11-19T20:27:25.800Z,2.10
2023-11-19T20:29:52.638Z,2.08
2023-11-19T20:32:19.300Z,2.05
2023-11-19T20:34:45.910Z,2.72
2023-11-19T20:37:12.502Z,2.25
2023-11-19T20:39:39.375Z,2.50
2023-11-19T20:42:06.406Z,2.83
2023-11-19T20:44:33.615Z,2.20
2023-11-19T20:47:05.080Z,2.58
2023-11-19T20:49:32.395Z,3.05
2023-11-19T20:51:59.062Z,2.30
2023-11-19T20:56:55.380Z,2.42
2023-11-19T20:59:21.985Z,2.50
2023-11-19T21:01:48.711Z,2.42
2023-11-19T21:04:15.949Z,2.20
2023-11-19T21:09:12.120Z,2.40
2023-11-19T21:11:38.776Z,2.03
2023-11-19T21:14:05.758Z,2.30
2023-11-19T21:16:32.548Z,2.55
2023-11-19T21:18:59.451Z,1.88
2023-11-19T21:21:26.272Z,1.70
2023-11-19T21:23:53.169Z,2.30
2023-11-19T21:26:20.245Z,2.10
2023-11-19T21:28:46.878Z,3.08
2023-11-19T21:31:14.819Z,1.98
2023-11-19T21:33:42.480Z,2.40
2023-11-19T21:36:09.332Z,2.65
2023-11-19T21:38:36.062Z,2.25
2023-11-19T21:41:02.843Z,2.35
2023-11-19T21:43:29.477Z,2.60
2023-11-19T21:45:57.096Z,1.90
2023-11-19T21:48:23.784Z,1.88
2023-11-19T21:50:50.620Z,2.20
2023-11-19T21:53:17.258Z,1.90
2023-11-19T21:55:43.877Z,1.95
2023-11-19T21:58:10.448Z,1.88
2023-11-19T22:00:37.129Z,1.90
2023-11-19T22:03:04.012Z,1.77
2023-11-19T22:05:30.957Z,1.48
2023-11-19T22:08:17.933Z,2.20
2023-11-19T22:10:44.637Z,1.70
2023-11-19T22:13:11.246Z,2.00
2023-11-19T22:15:37.839Z,1.52
2023-11-19T22:18:04.441Z,1.63
2023-11-19T22:20:31.123Z,1.65
2023-11-19T22:22:57.738Z,1.67
2023-11-19T22:25:26.048Z,1.77
2023-11-19T22:27:54.159Z,1.63
2023-11-19T22:30:21.202Z,1.50
2023-11-19T22:32:47.905Z,1.50
2023-11-19T22:35:14.659Z,1.60
2023-11-19T22:37:41.832Z,1.15
2023-11-19T22:40:09.688Z,1.33
2023-11-19T22:42:37.704Z,2.13
2023-11-19T22:45:04.800Z,1.52
2023-11-19T22:47:31.381Z,1.20
2023-11-19T22:49:58.087Z,1.42
2023-11-19T22:52:24.670Z,1.27
2023-11-19T22:54:51.347Z,1.30
2023-11-19T22:57:18.063Z,1.33
2023-11-19T22:59:45.397Z,1.20
2023-11-19T23:02:12.967Z,1.23
2023-11-19T23:04:39.569Z,1.00
2023-11-19T23:07:06.864Z,1.48
2023-11-19T23:09:33.639Z,1.23
2023-11-19T23:12:00.517Z,1.00
2023-11-19T23:14:27.127Z,1.48
2023-11-19T23:16:54.603Z,1.25
2023-11-19T23:19:21.271Z,1.13
2023-11-19T23:21:47.972Z,1.00
2023-11-19T23:24:14.604Z,1.65
2023-11-19T23:26:42.581Z,1.10
2023-11-19T23:29:15.126Z,1.15
2023-11-19T23:31:44.410Z,0.70
2023-11-19T23:34:11.065Z,0.98
2023-11-19T23:36:37.689Z,1.00
2023-11-19T23:39:07.255Z,1.70
2023-11-19T23:41:33.858Z,1.00
2023-11-19T23:44:00.477Z,1.13
2023-11-19T23:46:27.263Z,1.48
2023-11-19T23:51:26.290Z,0.90
2023-11-19T23:53:54.008Z,1.10
2023-11-19T23:56:20.838Z,1.08
2023-11-19T23:58:47.600Z,1.40
